Terminal Aerodrome Forecast
Issued by NWS Lake Charles, LA

Home | Current Version | Previous Version | Text Only | Print | Product List | Glossary On
Versions: 1 2 3 4 5 6 7 8 9 10 11 12 13 14 15 16 17
000
FTUS44 KLCH 042135 AAA
TAFBPT
TAF AMD
KBPT 042135Z 0422/0518 18008KT P6SM VCSH BKN035
      TEMPO 0422/0424 BKN025
     FM050000 15004KT P6SM SKC
     FM051400 VRB04KT P6SM VCSH SCT015=

USA.gov is the U.S. government's official web portal to all federal, state and local government web resources and services.